sensor_id;sensor_type;location;lat;lon;timestamp;P1;durP1;ratioP1;P2;durP2;ratioP2
22094;SDS011;24083;55.670;37.568;2023-07-13T00:04:23;1.65;;;1.20;;
22094;SDS011;24083;55.670;37.568;2023-07-13T00:10:13;4.35;;;1.70;;
22094;SDS011;24083;55.670;37.568;2023-07-13T00:13:02;2.75;;;1.23;;
22094;SDS011;24083;55.670;37.568;2023-07-13T00:15:31;3.22;;;1.80;;
22094;SDS011;24083;55.670;37.568;2023-07-13T00:18:03;1.92;;;1.55;;
22094;SDS011;24083;55.670;37.568;2023-07-13T00:20:46;1.67;;;1.58;;
22094;SDS011;24083;55.670;37.568;2023-07-13T00:23:19;2.67;;;1.70;;
22094;SDS011;24083;55.670;37.568;2023-07-13T00:25:45;2.55;;;1.80;;
22094;SDS011;24083;55.670;37.568;2023-07-13T00:28:10;2.88;;;1.83;;
22094;SDS011;24083;55.670;37.568;2023-07-13T00:30:37;3.55;;;1.73;;
22094;SDS011;24083;55.670;37.568;2023-07-13T00:33:03;3.97;;;1.90;;
22094;SDS011;24083;55.670;37.568;2023-07-13T00:35:31;2.50;;;1.70;;
22094;SDS011;24083;55.670;37.568;2023-07-13T00:38:03;4.25;;;1.90;;
22094;SDS011;24083;55.670;37.568;2023-07-13T00:40:31;3.60;;;1.80;;
22094;SDS011;24083;55.670;37.568;2023-07-13T00:42:57;2.85;;;1.85;;
22094;SDS011;24083;55.670;37.568;2023-07-13T00:47:57;2.53;;;1.90;;
22094;SDS011;24083;55.670;37.568;2023-07-13T00:54:47;6.38;;;2.00;;
22094;SDS011;24083;55.670;37.568;2023-07-13T00:57:16;1.98;;;1.70;;
22094;SDS011;24083;55.670;37.568;2023-07-13T01:07:17;1.85;;;1.55;;
22094;SDS011;24083;55.670;37.568;2023-07-13T01:09:59;2.38;;;1.95;;
22094;SDS011;24083;55.670;37.568;2023-07-13T01:12:31;3.53;;;2.00;;
22094;SDS011;24083;55.670;37.568;2023-07-13T01:14:58;2.10;;;1.77;;
22094;SDS011;24083;55.670;37.568;2023-07-13T01:17:29;4.90;;;2.17;;
22094;SDS011;24083;55.670;37.568;2023-07-13T01:26:53;2.60;;;1.80;;
22094;SDS011;24083;55.670;37.568;2023-07-13T01:29:35;3.83;;;1.95;;
22094;SDS011;24083;55.670;37.568;2023-07-13T01:33:03;3.47;;;1.90;;
22094;SDS011;24083;55.670;37.568;2023-07-13T01:35:36;5.60;;;1.95;;
22094;SDS011;24083;55.670;37.568;2023-07-13T01:38:03;3.55;;;2.00;;
22094;SDS011;24083;55.670;37.568;2023-07-13T01:40:30;3.53;;;2.08;;
22094;SDS011;24083;55.670;37.568;2023-07-13T01:49:27;4.18;;;2.05;;
22094;SDS011;24083;55.670;37.568;2023-07-13T02:01:17;3.75;;;2.22;;
22094;SDS011;24083;55.670;37.568;2023-07-13T02:06:16;3.65;;;2.10;;
22094;SDS011;24083;55.670;37.568;2023-07-13T02:11:12;3.63;;;2.10;;
22094;SDS011;24083;55.670;37.568;2023-07-13T02:16:08;2.50;;;2.10;;
22094;SDS011;24083;55.670;37.568;2023-07-13T02:21:05;6.05;;;2.15;;
22094;SDS011;24083;55.670;37.568;2023-07-13T02:23:41;2.78;;;1.75;;
22094;SDS011;24083;55.670;37.568;2023-07-13T02:26:13;6.43;;;2.22;;
22094;SDS011;24083;55.670;37.568;2023-07-13T02:28:41;3.10;;;2.30;;
22094;SDS011;24083;55.670;37.568;2023-07-13T02:31:09;4.70;;;2.40;;
22094;SDS011;24083;55.670;37.568;2023-07-13T02:40:16;4.82;;;2.63;;
22094;SDS011;24083;55.670;37.568;2023-07-13T02:45:34;4.00;;;2.33;;
22094;SDS011;24083;55.670;37.568;2023-07-13T02:59:54;5.03;;;2.40;;
22094;SDS011;24083;55.670;37.568;2023-07-13T03:02:21;5.10;;;2.45;;
22094;SDS011;24083;55.670;37.568;2023-07-13T03:04:50;4.20;;;2.40;;
22094;SDS011;24083;55.670;37.568;2023-07-13T03:07:16;2.65;;;2.22;;
22094;SDS011;24083;55.670;37.568;2023-07-13T03:09:45;3.38;;;2.15;;
22094;SDS011;24083;55.670;37.568;2023-07-13T03:12:14;2.67;;;2.20;;
22094;SDS011;24083;55.670;37.568;2023-07-13T03:14:44;5.38;;;2.03;;
22094;SDS011;24083;55.670;37.568;2023-07-13T03:17:13;4.63;;;2.30;;
22094;SDS011;24083;55.670;37.568;2023-07-13T03:19:40;3.72;;;1.98;;
22094;SDS011;24083;55.670;37.568;2023-07-13T03:22:08;3.70;;;2.40;;
22094;SDS011;24083;55.670;37.568;2023-07-13T03:24:34;9.20;;;2.63;;
22094;SDS011;24083;55.670;37.568;2023-07-13T03:27:04;4.20;;;2.28;;
22094;SDS011;24083;55.670;37.568;2023-07-13T03:32:54;2.47;;;1.95;;
22094;SDS011;24083;55.670;37.568;2023-07-13T03:35:20;2.70;;;2.20;;
22094;SDS011;24083;55.670;37.568;2023-07-13T03:37:48;5.32;;;2.17;;
22094;SDS011;24083;55.670;37.568;2023-07-13T03:40:20;4.10;;;2.00;;
22094;SDS011;24083;55.670;37.568;2023-07-13T03:46:08;5.60;;;2.30;;
22094;SDS011;24083;55.670;37.568;2023-07-13T03:52:01;3.80;;;2.08;;
22094;SDS011;24083;55.670;37.568;2023-07-13T03:54:28;2.80;;;2.30;;
22094;SDS011;24083;55.670;37.568;2023-07-13T03:59:48;3.42;;;2.30;;
22094;SDS011;24083;55.670;37.568;2023-07-13T04:02:16;5.78;;;2.30;;
22094;SDS011;24083;55.670;37.568;2023-07-13T04:04:45;5.95;;;2.00;;
22094;SDS011;24083;55.670;37.568;2023-07-13T04:07:25;6.00;;;2.20;;
22094;SDS011;24083;55.670;37.568;2023-07-13T04:10:25;2.85;;;2.05;;
22094;SDS011;24083;55.670;37.568;2023-07-13T04:15:24;4.53;;;2.30;;
22094;SDS011;24083;55.670;37.568;2023-07-13T04:17:50;4.60;;;2.25;;
22094;SDS011;24083;55.670;37.568;2023-07-13T04:20:16;5.05;;;2.15;;
22094;SDS011;24083;55.670;37.568;2023-07-13T04:22:47;6.38;;;2.30;;
22094;SDS011;24083;55.670;37.568;2023-07-13T04:25:13;4.28;;;2.42;;
22094;SDS011;24083;55.670;37.568;2023-07-13T04:27:41;4.40;;;2.28;;
22094;SDS011;24083;55.670;37.568;2023-07-13T04:36:32;5.93;;;2.28;;
22094;SDS011;24083;55.670;37.568;2023-07-13T04:41:58;3.80;;;2.40;;
22094;SDS011;24083;55.670;37.568;2023-07-13T04:44:36;4.00;;;2.22;;
22094;SDS011;24083;55.670;37.568;2023-07-13T04:47:03;5.78;;;2.22;;
22094;SDS011;24083;55.670;37.568;2023-07-13T05:13:18;5.78;;;2.30;;
22094;SDS011;24083;55.670;37.568;2023-07-13T05:15:45;3.22;;;2.20;;
22094;SDS011;24083;55.670;37.568;2023-07-13T05:18:12;2.97;;;2.08;;
22094;SDS011;24083;55.670;37.568;2023-07-13T05:29:17;3.58;;;2.45;;
22094;SDS011;24083;55.670;37.568;2023-07-13T05:31:45;4.63;;;1.75;;
22094;SDS011;24083;55.670;37.568;2023-07-13T05:36:54;7.03;;;2.20;;
22094;SDS011;24083;55.670;37.568;2023-07-13T05:39:37;5.10;;;2.20;;
22094;SDS011;24083;55.670;37.568;2023-07-13T05:42:10;6.22;;;2.10;;
22094;SDS011;24083;55.670;37.568;2023-07-13T05:44:44;5.20;;;2.28;;
22094;SDS011;24083;55.670;37.568;2023-07-13T06:03:23;3.75;;;2.00;;
22094;SDS011;24083;55.670;37.568;2023-07-13T06:05:52;6.10;;;2.40;;
22094;SDS011;24083;55.670;37.568;2023-07-13T06:10:53;14.45;;;2.30;;
22094;SDS011;24083;55.670;37.568;2023-07-13T06:13:34;5.50;;;1.95;;
22094;SDS011;24083;55.670;37.568;2023-07-13T06:22:45;3.35;;;2.17;;
22094;SDS011;24083;55.670;37.568;2023-07-13T06:25:16;3.55;;;1.95;;
22094;SDS011;24083;55.670;37.568;2023-07-13T06:27:51;3.50;;;1.65;;
22094;SDS011;24083;55.670;37.568;2023-07-13T06:30:22;4.30;;;2.00;;
22094;SDS011;24083;55.670;37.568;2023-07-13T06:32:49;3.75;;;1.83;;
22094;SDS011;24083;55.670;37.568;2023-07-13T06:35:18;3.63;;;1.92;;
22094;SDS011;24083;55.670;37.568;2023-07-13T06:37:48;4.18;;;2.15;;
22094;SDS011;24083;55.670;37.568;2023-07-13T06:43:04;5.97;;;1.83;;
22094;SDS011;24083;55.670;37.568;2023-07-13T06:53:55;3.22;;;1.70;;
22094;SDS011;24083;55.670;37.568;2023-07-13T06:56:26;2.75;;;1.60;;
22094;SDS011;24083;55.670;37.568;2023-07-13T06:59:08;4.05;;;1.83;;
22094;SDS011;24083;55.670;37.568;2023-07-13T07:01:36;6.35;;;2.00;;
22094;SDS011;24083;55.670;37.568;2023-07-13T07:04:04;6.88;;;2.00;;
22094;SDS011;24083;55.670;37.568;2023-07-13T07:06:32;5.93;;;1.80;;
22094;SDS011;24083;55.670;37.568;2023-07-13T07:08:59;5.70;;;2.00;;
22094;SDS011;24083;55.670;37.568;2023-07-13T07:14:17;6.80;;;1.83;;
22094;SDS011;24083;55.670;37.568;2023-07-13T07:16:43;4.20;;;1.42;;
22094;SDS011;24083;55.670;37.568;2023-07-13T07:19:11;4.50;;;1.77;;
22094;SDS011;24083;55.670;37.568;2023-07-13T07:21:38;3.72;;;1.67;;
22094;SDS011;24083;55.670;37.568;2023-07-13T07:24:11;2.63;;;1.70;;
22094;SDS011;24083;55.670;37.568;2023-07-13T07:26:45;4.57;;;1.98;;
22094;SDS011;24083;55.670;37.568;2023-07-13T07:35:48;4.78;;;1.90;;
22094;SDS011;24083;55.670;37.568;2023-07-13T07:41:09;3.90;;;1.90;;
22094;SDS011;24083;55.670;37.568;2023-07-13T07:49:16;7.88;;;2.25;;
22094;SDS011;24083;55.670;37.568;2023-07-13T07:51:46;6.57;;;2.20;;
22094;SDS011;24083;55.670;37.568;2023-07-13T07:56:43;5.55;;;2.10;;
22094;SDS011;24083;55.670;37.568;2023-07-13T08:05:56;5.85;;;2.10;;
22094;SDS011;24083;55.670;37.568;2023-07-13T08:12:25;6.28;;;2.00;;
22094;SDS011;24083;55.670;37.568;2023-07-13T08:22:27;3.88;;;2.17;;
22094;SDS011;24083;55.670;37.568;2023-07-13T08:24:55;5.85;;;1.92;;
22094;SDS011;24083;55.670;37.568;2023-07-13T08:30:47;4.28;;;2.00;;
22094;SDS011;24083;55.670;37.568;2023-07-13T08:33:19;6.00;;;1.85;;
22094;SDS011;24083;55.670;37.568;2023-07-13T08:39:49;4.32;;;1.92;;
22094;SDS011;24083;55.670;37.568;2023-07-13T08:47:51;2.72;;;1.73;;
22094;SDS011;24083;55.670;37.568;2023-07-13T08:53:19;3.30;;;2.15;;
22094;SDS011;24083;55.670;37.568;2023-07-13T08:55:54;4.50;;;2.20;;
22094;SDS011;24083;55.670;37.568;2023-07-13T08:58:31;3.47;;;1.80;;
22094;SDS011;24083;55.670;37.568;2023-07-13T09:01:18;5.82;;;2.60;;
22094;SDS011;24083;55.670;37.568;2023-07-13T09:03:53;4.45;;;2.15;;
22094;SDS011;24083;55.670;37.568;2023-07-13T09:12:19;5.07;;;2.20;;
22094;SDS011;24083;55.670;37.568;2023-07-13T09:14:56;6.82;;;2.42;;
22094;SDS011;24083;55.670;37.568;2023-07-13T09:26:42;4.80;;;2.88;;
22094;SDS011;24083;55.670;37.568;2023-07-13T09:29:17;3.35;;;1.63;;
22094;SDS011;24083;55.670;37.568;2023-07-13T09:31:47;4.90;;;2.70;;
22094;SDS011;24083;55.670;37.568;2023-07-13T09:37:31;5.82;;;3.00;;
22094;SDS011;24083;55.670;37.568;2023-07-13T09:46:00;3.95;;;2.15;;
22094;SDS011;24083;55.670;37.568;2023-07-13T09:48:33;8.73;;;3.20;;
22094;SDS011;24083;55.670;37.568;2023-07-13T09:51:06;6.70;;;3.22;;
22094;SDS011;24083;55.670;37.568;2023-07-13T09:53:36;4.40;;;3.00;;
22094;SDS011;24083;55.670;37.568;2023-07-13T09:56:03;7.75;;;3.00;;
22094;SDS011;24083;55.670;37.568;2023-07-13T10:04:10;8.48;;;3.28;;
22094;SDS011;24083;55.670;37.568;2023-07-13T10:06:38;7.03;;;3.40;;
22094;SDS011;24083;55.670;37.568;2023-07-13T10:12:14;5.35;;;3.10;;
22094;SDS011;24083;55.670;37.568;2023-07-13T10:23:05;5.80;;;3.08;;
22094;SDS011;24083;55.670;37.568;2023-07-13T10:28:11;6.15;;;3.20;;
22094;SDS011;24083;55.670;37.568;2023-07-13T10:39:50;5.50;;;3.25;;
22094;SDS011;24083;55.670;37.568;2023-07-13T10:42:19;9.35;;;3.03;;
22094;SDS011;24083;55.670;37.568;2023-07-13T10:44:47;7.28;;;3.08;;
22094;SDS011;24083;55.670;37.568;2023-07-13T10:47:15;4.30;;;3.10;;
22094;SDS011;24083;55.670;37.568;2023-07-13T10:50:51;3.97;;;2.83;;
22094;SDS011;24083;55.670;37.568;2023-07-13T10:53:38;9.63;;;3.28;;
22094;SDS011;24083;55.670;37.568;2023-07-13T10:57:25;6.60;;;3.30;;
22094;SDS011;24083;55.670;37.568;2023-07-13T11:25:31;6.78;;;3.33;;
22094;SDS011;24083;55.670;37.568;2023-07-13T11:34:26;5.65;;;2.85;;
22094;SDS011;24083;55.670;37.568;2023-07-13T11:37:53;4.40;;;3.08;;
22094;SDS011;24083;55.670;37.568;2023-07-13T11:40:19;7.70;;;3.20;;
22094;SDS011;24083;55.670;37.568;2023-07-13T11:42:46;8.27;;;3.58;;
22094;SDS011;24083;55.670;37.568;2023-07-13T11:47:59;3.85;;;2.38;;
22094;SDS011;24083;55.670;37.568;2023-07-13T11:54:57;7.07;;;3.58;;
22094;SDS011;24083;55.670;37.568;2023-07-13T11:58:23;5.53;;;2.72;;
22094;SDS011;24083;55.670;37.568;2023-07-13T12:01:01;4.93;;;2.80;;
22094;SDS011;24083;55.670;37.568;2023-07-13T12:03:39;4.53;;;2.08;;
22094;SDS011;24083;55.670;37.568;2023-07-13T12:12:55;5.10;;;2.90;;
22094;SDS011;24083;55.670;37.568;2023-07-13T12:19:20;4.13;;;2.70;;
22094;SDS011;24083;55.670;37.568;2023-07-13T12:21:55;5.38;;;2.65;;
22094;SDS011;24083;55.670;37.568;2023-07-13T12:36:24;5.70;;;3.00;;
22094;SDS011;24083;55.670;37.568;2023-07-13T12:41:39;4.10;;;2.80;;
22094;SDS011;24083;55.670;37.568;2023-07-13T12:44:11;5.03;;;2.90;;
22094;SDS011;24083;55.670;37.568;2023-07-13T12:46:37;5.75;;;2.72;;
22094;SDS011;24083;55.670;37.568;2023-07-13T12:49:06;3.88;;;2.47;;
22094;SDS011;24083;55.670;37.568;2023-07-13T12:57:38;4.80;;;2.88;;
22094;SDS011;24083;55.670;37.568;2023-07-13T13:06:30;7.60;;;2.95;;
22094;SDS011;24083;55.670;37.568;2023-07-13T13:09:02;8.02;;;2.90;;
22094;SDS011;24083;55.670;37.568;2023-07-13T13:23:36;7.93;;;2.90;;
22094;SDS011;24083;55.670;37.568;2023-07-13T13:26:07;6.70;;;3.20;;
22094;SDS011;24083;55.670;37.568;2023-07-13T13:28:46;5.05;;;2.80;;
22094;SDS011;24083;55.670;37.568;2023-07-13T13:31:21;5.25;;;3.30;;
22094;SDS011;24083;55.670;37.568;2023-07-13T13:33:50;5.55;;;2.85;;
22094;SDS011;24083;55.670;37.568;2023-07-13T13:36:17;5.13;;;2.75;;
22094;SDS011;24083;55.670;37.568;2023-07-13T13:38:44;5.28;;;2.88;;
22094;SDS011;24083;55.670;37.568;2023-07-13T13:41:12;5.68;;;2.67;;
22094;SDS011;24083;55.670;37.568;2023-07-13T13:47:30;6.35;;;2.80;;
22094;SDS011;24083;55.670;37.568;2023-07-13T13:49:56;6.60;;;3.10;;
22094;SDS011;24083;55.670;37.568;2023-07-13T13:52:25;6.82;;;3.17;;
22094;SDS011;24083;55.670;37.568;2023-07-13T13:54:51;6.40;;;3.40;;
22094;SDS011;24083;55.670;37.568;2023-07-13T13:57:45;4.38;;;3.20;;
22094;SDS011;24083;55.670;37.568;2023-07-13T14:00:11;6.53;;;3.10;;
22094;SDS011;24083;55.670;37.568;2023-07-13T14:02:42;7.57;;;3.20;;
22094;SDS011;24083;55.670;37.568;2023-07-13T14:05:20;5.13;;;3.20;;
22094;SDS011;24083;55.670;37.568;2023-07-13T14:07:47;8.43;;;3.40;;
22094;SDS011;24083;55.670;37.568;2023-07-13T14:10:31;5.00;;;2.60;;
22094;SDS011;24083;55.670;37.568;2023-07-13T14:12:57;4.55;;;2.45;;
22094;SDS011;24083;55.670;37.568;2023-07-13T14:15:29;7.00;;;3.13;;
22094;SDS011;24083;55.670;37.568;2023-07-13T14:20:55;8.10;;;3.28;;
22094;SDS011;24083;55.670;37.568;2023-07-13T14:23:20;6.68;;;3.05;;
22094;SDS011;24083;55.670;37.568;2023-07-13T14:25:46;8.63;;;3.00;;
22094;SDS011;24083;55.670;37.568;2023-07-13T14:28:25;6.53;;;2.72;;
22094;SDS011;24083;55.670;37.568;2023-07-13T14:30:53;8.85;;;3.25;;
22094;SDS011;24083;55.670;37.568;2023-07-13T14:33:20;7.15;;;3.10;;
22094;SDS011;24083;55.670;37.568;2023-07-13T14:35:49;8.50;;;2.83;;
22094;SDS011;24083;55.670;37.568;2023-07-13T14:38:17;4.35;;;2.60;;
22094;SDS011;24083;55.670;37.568;2023-07-13T14:40:43;8.85;;;2.92;;
22094;SDS011;24083;55.670;37.568;2023-07-13T14:43:11;8.32;;;2.97;;
22094;SDS011;24083;55.670;37.568;2023-07-13T14:48:24;6.32;;;3.03;;
22094;SDS011;24083;55.670;37.568;2023-07-13T14:50:50;6.03;;;2.72;;
22094;SDS011;24083;55.670;37.568;2023-07-13T14:53:19;4.43;;;2.80;;
22094;SDS011;24083;55.670;37.568;2023-07-13T14:55:49;3.85;;;2.70;;
22094;SDS011;24083;55.670;37.568;2023-07-13T15:01:54;10.25;;;3.25;;
22094;SDS011;24083;55.670;37.568;2023-07-13T15:07:44;9.23;;;2.80;;
22094;SDS011;24083;55.670;37.568;2023-07-13T15:13:20;4.75;;;2.30;;
22094;SDS011;24083;55.670;37.568;2023-07-13T15:15:47;11.02;;;3.25;;
22094;SDS011;24083;55.670;37.568;2023-07-13T15:18:14;7.13;;;3.25;;
22094;SDS011;24083;55.670;37.568;2023-07-13T15:20:45;7.05;;;3.58;;
22094;SDS011;24083;55.670;37.568;2023-07-13T15:23:13;13.90;;;3.30;;
22094;SDS011;24083;55.670;37.568;2023-07-13T15:25:41;3.47;;;3.00;;
22094;SDS011;24083;55.670;37.568;2023-07-13T15:28:07;6.90;;;3.20;;
22094;SDS011;24083;55.670;37.568;2023-07-13T15:30:50;8.52;;;3.60;;
22094;SDS011;24083;55.670;37.568;2023-07-13T15:33:21;9.18;;;3.70;;
22094;SDS011;24083;55.670;37.568;2023-07-13T15:40:01;8.45;;;4.00;;
22094;SDS011;24083;55.670;37.568;2023-07-13T15:48:50;5.15;;;3.35;;
22094;SDS011;24083;55.670;37.568;2023-07-13T15:51:24;9.98;;;3.42;;
22094;SDS011;24083;55.670;37.568;2023-07-13T16:07:04;7.53;;;4.55;;
22094;SDS011;24083;55.670;37.568;2023-07-13T16:09:30;7.13;;;4.15;;
22094;SDS011;24083;55.670;37.568;2023-07-13T16:11:58;11.02;;;4.50;;
22094;SDS011;24083;55.670;37.568;2023-07-13T16:28:53;8.23;;;4.40;;
22094;SDS011;24083;55.670;37.568;2023-07-13T16:34:14;19.67;;;5.15;;
22094;SDS011;24083;55.670;37.568;2023-07-13T16:53:54;11.10;;;4.32;;
22094;SDS011;24083;55.670;37.568;2023-07-13T16:56:20;8.82;;;4.38;;
22094;SDS011;24083;55.670;37.568;2023-07-13T16:58:47;12.07;;;4.70;;
22094;SDS011;24083;55.670;37.568;2023-07-13T17:01:13;8.68;;;4.82;;
22094;SDS011;24083;55.670;37.568;2023-07-13T17:03:41;6.90;;;4.72;;
22094;SDS011;24083;55.670;37.568;2023-07-13T17:06:22;8.55;;;4.88;;
22094;SDS011;24083;55.670;37.568;2023-07-13T17:08:49;8.95;;;5.07;;
22094;SDS011;24083;55.670;37.568;2023-07-13T17:14:17;7.18;;;4.40;;
22094;SDS011;24083;55.670;37.568;2023-07-13T17:19:29;10.10;;;3.75;;
22094;SDS011;24083;55.670;37.568;2023-07-13T17:21:55;6.65;;;4.30;;
22094;SDS011;24083;55.670;37.568;2023-07-13T17:26:53;7.35;;;4.57;;
22094;SDS011;24083;55.670;37.568;2023-07-13T17:29:27;6.30;;;4.15;;
22094;SDS011;24083;55.670;37.568;2023-07-13T17:31:53;7.07;;;3.80;;
22094;SDS011;24083;55.670;37.568;2023-07-13T17:34:24;6.47;;;4.47;;
22094;SDS011;24083;55.670;37.568;2023-07-13T17:36:51;6.75;;;3.95;;
22094;SDS011;24083;55.670;37.568;2023-07-13T17:39:27;6.90;;;4.70;;
22094;SDS011;24083;55.670;37.568;2023-07-13T17:44:47;10.05;;;4.60;;
22094;SDS011;24083;55.670;37.568;2023-07-13T17:47:25;10.63;;;4.88;;
22094;SDS011;24083;55.670;37.568;2023-07-13T17:49:52;7.07;;;3.92;;
22094;SDS011;24083;55.670;37.568;2023-07-13T17:52:18;11.57;;;4.85;;
22094;SDS011;24083;55.670;37.568;2023-07-13T17:54:51;8.48;;;4.78;;
22094;SDS011;24083;55.670;37.568;2023-07-13T17:57:17;6.80;;;5.03;;
22094;SDS011;24083;55.670;37.568;2023-07-13T17:59:42;9.05;;;5.40;;
22094;SDS011;24083;55.670;37.568;2023-07-13T18:02:19;8.52;;;5.03;;
22094;SDS011;24083;55.670;37.568;2023-07-13T18:07:49;7.00;;;4.90;;
22094;SDS011;24083;55.670;37.568;2023-07-13T18:10:16;6.55;;;4.72;;
22094;SDS011;24083;55.670;37.568;2023-07-13T18:12:43;7.55;;;4.30;;
22094;SDS011;24083;55.670;37.568;2023-07-13T18:15:12;9.15;;;5.47;;
22094;SDS011;24083;55.670;37.568;2023-07-13T18:17:44;10.20;;;5.30;;
22094;SDS011;24083;55.670;37.568;2023-07-13T18:20:11;10.80;;;4.90;;
22094;SDS011;24083;55.670;37.568;2023-07-13T18:22:43;8.25;;;5.30;;
22094;SDS011;24083;55.670;37.568;2023-07-13T18:25:16;7.45;;;5.18;;
22094;SDS011;24083;55.670;37.568;2023-07-13T18:27:42;6.82;;;5.07;;
22094;SDS011;24083;55.670;37.568;2023-07-13T18:30:17;7.43;;;4.82;;
22094;SDS011;24083;55.670;37.568;2023-07-13T18:32:46;7.63;;;5.40;;
22094;SDS011;24083;55.670;37.568;2023-07-13T18:35:27;8.50;;;5.47;;
22094;SDS011;24083;55.670;37.568;2023-07-13T18:37:55;7.93;;;4.90;;
22094;SDS011;24083;55.670;37.568;2023-07-13T18:42:53;8.43;;;5.30;;
22094;SDS011;24083;55.670;37.568;2023-07-13T18:45:21;6.03;;;3.83;;
22094;SDS011;24083;55.670;37.568;2023-07-13T18:50:41;8.13;;;5.43;;
22094;SDS011;24083;55.670;37.568;2023-07-13T18:53:15;8.32;;;5.80;;
22094;SDS011;24083;55.670;37.568;2023-07-13T18:55:42;4.53;;;3.10;;
22094;SDS011;24083;55.670;37.568;2023-07-13T18:58:11;9.32;;;5.95;;
22094;SDS011;24083;55.670;37.568;2023-07-13T19:00:38;10.07;;;6.32;;
22094;SDS011;24083;55.670;37.568;2023-07-13T19:03:11;8.32;;;5.70;;
22094;SDS011;24083;55.670;37.568;2023-07-13T19:05:39;9.25;;;6.18;;
22094;SDS011;24083;55.670;37.568;2023-07-13T19:10:54;9.10;;;6.28;;
22094;SDS011;24083;55.670;37.568;2023-07-13T19:13:30;10.25;;;5.80;;
22094;SDS011;24083;55.670;37.568;2023-07-13T19:16:03;8.63;;;6.13;;
22094;SDS011;24083;55.670;37.568;2023-07-13T19:18:28;9.70;;;6.03;;
22094;SDS011;24083;55.670;37.568;2023-07-13T19:20:56;9.88;;;6.40;;
22094;SDS011;24083;55.670;37.568;2023-07-13T19:23:34;8.10;;;5.25;;
22094;SDS011;24083;55.670;37.568;2023-07-13T19:26:14;10.40;;;6.53;;
22094;SDS011;24083;55.670;37.568;2023-07-13T19:28:42;8.65;;;5.28;;
22094;SDS011;24083;55.670;37.568;2023-07-13T19:31:22;8.95;;;5.93;;
22094;SDS011;24083;55.670;37.568;2023-07-13T19:33:49;8.73;;;6.25;;
22094;SDS011;24083;55.670;37.568;2023-07-13T19:36:25;8.95;;;6.40;;
22094;SDS011;24083;55.670;37.568;2023-07-13T19:38:52;8.05;;;5.25;;
22094;SDS011;24083;55.670;37.568;2023-07-13T19:44:11;10.32;;;6.10;;
22094;SDS011;24083;55.670;37.568;2023-07-13T19:46:37;10.90;;;6.68;;
22094;SDS011;24083;55.670;37.568;2023-07-13T19:49:05;10.02;;;6.60;;
22094;SDS011;24083;55.670;37.568;2023-07-13T19:51:35;7.32;;;5.88;;
22094;SDS011;24083;55.670;37.568;2023-07-13T19:54:02;8.77;;;6.00;;
22094;SDS011;24083;55.670;37.568;2023-07-13T19:56:28;13.00;;;6.32;;
22094;SDS011;24083;55.670;37.568;2023-07-13T19:58:55;8.98;;;6.13;;
22094;SDS011;24083;55.670;37.568;2023-07-13T20:01:23;7.57;;;4.82;;
22094;SDS011;24083;55.670;37.568;2023-07-13T20:03:49;7.93;;;5.53;;
22094;SDS011;24083;55.670;37.568;2023-07-13T20:08:58;8.82;;;4.93;;
22094;SDS011;24083;55.670;37.568;2023-07-13T20:11:32;6.20;;;2.70;;
22094;SDS011;24083;55.670;37.568;2023-07-13T20:13:57;4.60;;;3.05;;
22094;SDS011;24083;55.670;37.568;2023-07-13T20:16:24;8.15;;;4.65;;
22094;SDS011;24083;55.670;37.568;2023-07-13T20:21:54;8.95;;;5.63;;
22094;SDS011;24083;55.670;37.568;2023-07-13T20:27:10;7.28;;;4.30;;
22094;SDS011;24083;55.670;37.568;2023-07-13T20:29:36;9.48;;;5.35;;
22094;SDS011;24083;55.670;37.568;2023-07-13T20:34:52;8.43;;;5.07;;
22094;SDS011;24083;55.670;37.568;2023-07-13T20:39:43;7.90;;;5.50;;
22094;SDS011;24083;55.670;37.568;2023-07-13T20:42:16;9.15;;;5.40;;
22094;SDS011;24083;55.670;37.568;2023-07-13T20:44:43;5.13;;;3.53;;
22094;SDS011;24083;55.670;37.568;2023-07-13T20:49:58;7.53;;;4.70;;
22094;SDS011;24083;55.670;37.568;2023-07-13T20:52:26;6.25;;;4.82;;
22094;SDS011;24083;55.670;37.568;2023-07-13T20:54:52;7.93;;;5.10;;
22094;SDS011;24083;55.670;37.568;2023-07-13T20:59:51;6.65;;;3.35;;
22094;SDS011;24083;55.670;37.568;2023-07-13T21:02:33;8.63;;;5.10;;
22094;SDS011;24083;55.670;37.568;2023-07-13T21:05:11;5.13;;;3.85;;
22094;SDS011;24083;55.670;37.568;2023-07-13T21:11:09;5.15;;;3.40;;
22094;SDS011;24083;55.670;37.568;2023-07-13T21:13:36;4.80;;;3.08;;
22094;SDS011;24083;55.670;37.568;2023-07-13T21:18:48;6.88;;;4.05;;
22094;SDS011;24083;55.670;37.568;2023-07-13T21:21:16;5.10;;;3.85;;
22094;SDS011;24083;55.670;37.568;2023-07-13T21:23:49;6.05;;;3.58;;
22094;SDS011;24083;55.670;37.568;2023-07-13T21:27:18;4.95;;;3.92;;
22094;SDS011;24083;55.670;37.568;2023-07-13T21:34:13;6.18;;;3.58;;
22094;SDS011;24083;55.670;37.568;2023-07-13T21:36:40;3.95;;;3.38;;
22094;SDS011;24083;55.670;37.568;2023-07-13T21:52:50;7.95;;;5.13;;
22094;SDS011;24083;55.670;37.568;2023-07-13T21:55:18;7.72;;;3.95;;
22094;SDS011;24083;55.670;37.568;2023-07-13T21:58:34;10.60;;;4.80;;
22094;SDS011;24083;55.670;37.568;2023-07-13T22:01:02;5.95;;;4.30;;
22094;SDS011;24083;55.670;37.568;2023-07-13T22:06:38;10.73;;;5.07;;
22094;SDS011;24083;55.670;37.568;2023-07-13T22:09:11;9.13;;;4.60;;
22094;SDS011;24083;55.670;37.568;2023-07-13T22:11:43;5.97;;;4.85;;
22094;SDS011;24083;55.670;37.568;2023-07-13T22:14:12;10.48;;;4.70;;
22094;SDS011;24083;55.670;37.568;2023-07-13T22:16:38;5.30;;;4.32;;
22094;SDS011;24083;55.670;37.568;2023-07-13T22:19:13;8.70;;;4.95;;
22094;SDS011;24083;55.670;37.568;2023-07-13T22:21:40;5.82;;;4.88;;
22094;SDS011;24083;55.670;37.568;2023-07-13T22:24:17;8.70;;;4.95;;
22094;SDS011;24083;55.670;37.568;2023-07-13T22:27:50;6.32;;;4.70;;
22094;SDS011;24083;55.670;37.568;2023-07-13T22:37:43;7.40;;;5.28;;
22094;SDS011;24083;55.670;37.568;2023-07-13T22:42:58;9.48;;;5.80;;
22094;SDS011;24083;55.670;37.568;2023-07-13T22:45:32;10.65;;;5.25;;
22094;SDS011;24083;55.670;37.568;2023-07-13T22:48:00;10.65;;;5.78;;
22094;SDS011;24083;55.670;37.568;2023-07-13T22:50:49;7.53;;;4.85;;
22094;SDS011;24083;55.670;37.568;2023-07-13T22:54:29;7.32;;;5.53;;
22094;SDS011;24083;55.670;37.568;2023-07-13T22:56:56;10.95;;;6.53;;
22094;SDS011;24083;55.670;37.568;2023-07-13T22:59:44;7.32;;;5.65;;
22094;SDS011;24083;55.670;37.568;2023-07-13T23:02:16;9.60;;;6.35;;
22094;SDS011;24083;55.670;37.568;2023-07-13T23:07:43;7.15;;;5.40;;
22094;SDS011;24083;55.670;37.568;2023-07-13T23:17:49;6.50;;;4.60;;
22094;SDS011;24083;55.670;37.568;2023-07-13T23:26:01;7.63;;;4.78;;
22094;SDS011;24083;55.670;37.568;2023-07-13T23:30:59;6.22;;;3.15;;
22094;SDS011;24083;55.670;37.568;2023-07-13T23:40:39;6.05;;;4.70;;
22094;SDS011;24083;55.670;37.568;2023-07-13T23:43:12;8.45;;;4.47;;
22094;SDS011;24083;55.670;37.568;2023-07-13T23:48:43;8.00;;;5.07;;
22094;SDS011;24083;55.670;37.568;2023-07-13T23:51:18;5.40;;;4.22;;
22094;SDS011;24083;55.670;37.568;2023-07-13T23:54:09;10.00;;;6.35;;
22094;SDS011;24083;55.670;37.568;2023-07-13T23:56:38;8.57;;;6.70;;
22094;SDS011;24083;55.670;37.568;2023-07-13T23:59:07;10.60;;;6.90;;
